createdAt,value
2019-03-20T00:03:07.792Z,1033.33
2019-03-20T00:08:07.307Z,1033.32
2019-03-20T00:13:07.172Z,1033.36
2019-03-20T00:18:07.628Z,1033.32
2019-03-20T00:23:07.175Z,1033.31
2019-03-20T00:27:07.655Z,1033.24
2019-03-20T00:32:06.855Z,1033.32
2019-03-20T00:37:07.430Z,1033.27
2019-03-20T00:42:07.127Z,1033.26
2019-03-20T00:47:07.302Z,1033.26
2019-03-20T00:52:06.902Z,1033.33
2019-03-20T00:57:07.507Z,1033.28
2019-03-20T01:01:06.901Z,1033.34
2019-03-20T01:06:07.423Z,1033.31
2019-03-20T01:11:07.410Z,1033.19
2019-03-20T01:16:07.584Z,1033.23
2019-03-20T01:21:07.163Z,1033.15
2019-03-20T01:26:07.751Z,1033.25
2019-03-20T01:31:07.011Z,1033.23
2019-03-20T01:36:07.528Z,1033.25
2019-03-20T01:40:07.336Z,1033.31
2019-03-20T01:45:08.568Z,1033.26
2019-03-20T01:50:07.006Z,1033.31
2019-03-20T01:55:07.403Z,1033.13
2019-03-20T02:00:09.403Z,1033.29
2019-03-20T02:05:11.763Z,1033.3
2019-03-20T02:10:07.868Z,1033.3
2019-03-20T02:14:08.405Z,1033.33
2019-03-20T02:19:07.544Z,1033.4
2019-03-20T02:24:07.133Z,1033.5
2019-03-20T02:29:07.595Z,1033.43
2019-03-20T02:34:07.744Z,1033.43
2019-03-20T02:39:07.658Z,1033.39
2019-03-20T02:44:07.077Z,1033.44
2019-03-20T02:48:07.422Z,1033.39
2019-03-20T02:53:07.003Z,1033.46
2019-03-20T02:58:07.587Z,1033.49
2019-03-20T03:03:06.956Z,1033.4
2019-03-20T03:08:07.605Z,1033.48
2019-03-20T03:13:07.522Z,1033.53
2019-03-20T03:18:06.947Z,1033.54
2019-03-20T03:22:07.543Z,1033.59
2019-03-20T03:27:07.135Z,1033.7
2019-03-20T03:32:07.651Z,1033.67
2019-03-20T03:37:07.252Z,1033.77
2019-03-20T03:42:07.342Z,1033.74
2019-03-20T03:47:06.555Z,1033.88
2019-03-20T03:51:07.407Z,1033.87
2019-03-20T03:56:07.078Z,1033.94
2019-03-20T04:01:07.218Z,1033.89
2019-03-20T04:06:06.603Z,1033.95
2019-03-20T04:11:06.994Z,1033.92
2019-03-20T04:16:06.990Z,1034.01
2019-03-20T04:21:06.959Z,1034
2019-03-20T04:26:07.266Z,1034.01
2019-03-20T04:30:08.387Z,1034.11
2019-03-20T04:35:07.215Z,1034.09
2019-03-20T04:40:07.221Z,1034.08
2019-03-20T04:45:09.392Z,1034.12
2019-03-20T04:50:07.817Z,1034.01
2019-03-20T04:55:07.465Z,1034.03
2019-03-20T05:00:08.446Z,1034.13
2019-03-20T05:04:07.314Z,1034.17
2019-03-20T05:09:07.259Z,1034.21
2019-03-20T05:14:06.903Z,1034.24
2019-03-20T05:19:07.492Z,1034.22
2019-03-20T05:24:07.190Z,1034.28
2019-03-20T05:29:07.561Z,1034.42
2019-03-20T05:34:07.065Z,1034.45
2019-03-20T05:39:08.172Z,1034.55
2019-03-20T05:43:07.074Z,1034.47
2019-03-20T05:48:07.493Z,1034.44
2019-03-20T05:53:07.043Z,1034.54
2019-03-20T05:58:07.592Z,1034.53
2019-03-20T06:03:07.688Z,1034.53
2019-03-20T06:08:07.574Z,1034.48
2019-03-20T06:13:07.533Z,1034.61
2019-03-20T06:17:07.391Z,1034.72
2019-03-20T06:22:07.459Z,1034.69
2019-03-20T06:27:07.018Z,1034.78
2019-03-20T06:32:07.591Z,1034.81
2019-03-20T06:37:07.167Z,1034.85
2019-03-20T06:42:07.116Z,1034.91
2019-03-20T06:47:07.410Z,1034.99
2019-03-20T06:51:06.846Z,1034.97
2019-03-20T06:56:07.361Z,1035.01
2019-03-20T07:01:07.270Z,1035.1
2019-03-20T07:06:07.849Z,1035.15
2019-03-20T07:11:06.858Z,1035.13
2019-03-20T07:16:07.131Z,1035.18
2019-03-20T07:21:07.461Z,1035.19
2019-03-20T07:25:07.243Z,1035.34
2019-03-20T07:30:08.076Z,1035.29
2019-03-20T07:35:07.391Z,1035.36
2019-03-20T07:40:07.403Z,1035.31
2019-03-20T07:45:08.515Z,1035.44
2019-03-20T07:50:07.259Z,1035.49
2019-03-20T07:54:07.879Z,1035.45
2019-03-20T07:59:07.482Z,1035.48
2019-03-20T08:04:07.104Z,1035.51
2019-03-20T08:09:08.169Z,1035.6
2019-03-20T08:14:07.785Z,1035.61
2019-03-20T08:19:07.144Z,1035.49
2019-03-20T08:24:07.705Z,1035.48
2019-03-20T08:29:07.312Z,1035.37
2019-03-20T08:33:07.542Z,1035.4
2019-03-20T08:38:19.320Z,1035.48
2019-03-20T08:43:07.528Z,1035.49
2019-03-20T08:48:06.807Z,1035.45
2019-03-20T08:53:07.374Z,1035.48
2019-03-20T08:58:06.864Z,1035.56
2019-03-20T09:03:06.881Z,1035.49
2019-03-20T09:08:07.488Z,1035.49
2019-03-20T09:12:07.510Z,1035.41
2019-03-20T09:17:07.749Z,1035.41
2019-03-20T09:22:07.333Z,1035.53
2019-03-20T09:27:06.998Z,1035.49
2019-03-20T09:32:07.368Z,1035.54
2019-03-20T09:37:06.982Z,1035.53
2019-03-20T09:41:06.934Z,1035.55
2019-03-20T09:46:07.031Z,1035.6
2019-03-20T09:51:07.683Z,1035.62
2019-03-20T09:56:07.242Z,1035.7
2019-03-20T10:01:07.112Z,1035.62
2019-03-20T10:06:07.847Z,1035.61
2019-03-20T10:11:06.968Z,1035.59
2019-03-20T10:15:08.974Z,1035.5
2019-03-20T10:20:07.845Z,1035.56
2019-03-20T10:25:07.450Z,1035.49
2019-03-20T10:30:08.165Z,1035.45
2019-03-20T10:35:07.615Z,1035.54
2019-03-20T10:40:07.608Z,1035.49
2019-03-20T10:45:08.040Z,1035.44
2019-03-20T10:50:06.927Z,1035.53
2019-03-20T10:54:07.417Z,1035.57
2019-03-20T10:59:07.037Z,1035.51
2019-03-20T11:04:07.783Z,1035.44
2019-03-20T11:09:19.194Z,1035.47
2019-03-20T11:14:06.749Z,1035.49
2019-03-20T11:19:07.167Z,1035.35
2019-03-20T11:24:07.740Z,1035.37
2019-03-20T11:28:07.220Z,1035.42
2019-03-20T11:33:06.973Z,1035.34
2019-03-20T11:38:07.589Z,1035.2
2019-03-20T11:43:07.627Z,1035.17
2019-03-20T11:48:07.294Z,1035.12
2019-03-20T11:53:06.832Z,1035.04
2019-03-20T11:58:07.436Z,1035.07
2019-03-20T12:02:07.188Z,1034.92
2019-03-20T12:07:07.699Z,1035
2019-03-20T12:12:07.774Z,1034.91
2019-03-20T12:17:07.339Z,1034.93
2019-03-20T12:22:06.870Z,1034.79
2019-03-20T12:27:16.458Z,1034.82
2019-03-20T12:32:07.199Z,1034.92
2019-03-20T12:36:07.675Z,1034.91
2019-03-20T12:41:07.760Z,1034.99
2019-03-20T12:46:07.150Z,1035.03
2019-03-20T12:51:07.742Z,1034.87
2019-03-20T12:56:07.330Z,1034.88
2019-03-20T13:01:07.362Z,1034.86
2019-03-20T13:06:06.916Z,1034.86
2019-03-20T13:11:06.887Z,1034.88
2019-03-20T13:15:08.618Z,1034.86
2019-03-20T13:20:07.663Z,1034.89
2019-03-20T13:25:07.191Z,1034.77
2019-03-20T13:30:08.865Z,1034.78
2019-03-20T13:35:07.413Z,1034.71
2019-03-20T13:40:15.423Z,1034.66
2019-03-20T13:44:06.887Z,1034.5
2019-03-20T13:49:06.920Z,1034.44
2019-03-20T13:54:07.781Z,1034.49
2019-03-20T13:59:07.065Z,1034.44
2019-03-20T14:04:07.173Z,1034.35
2019-03-20T14:09:08.115Z,1034.45
2019-03-20T14:14:07.848Z,1034.41
2019-03-20T14:18:07.034Z,1034.32
2019-03-20T14:23:07.897Z,1034.35
2019-03-20T14:28:07.468Z,1034.33
2019-03-20T14:33:07.712Z,1034.39
2019-03-20T14:38:07.235Z,1034.29
2019-03-20T14:43:07.496Z,1034.36
2019-03-20T14:48:07.052Z,1034.47
2019-03-20T14:53:07.640Z,1034.51
2019-03-20T14:57:06.664Z,1034.5
2019-03-20T15:02:07.467Z,1034.37
2019-03-20T15:07:07.010Z,1034.33
2019-03-20T15:12:07.051Z,1034.39
2019-03-20T15:17:07.479Z,1034.32
2019-03-20T15:22:06.663Z,1034.18
2019-03-20T15:26:07.446Z,1034.22
2019-03-20T15:31:06.953Z,1034.15
2019-03-20T15:36:07.721Z,1034.1
2019-03-20T15:41:06.738Z,1034.17
2019-03-20T15:46:07.444Z,1034.17
2019-03-20T15:51:06.748Z,1034.14
2019-03-20T15:56:07.618Z,1034.18
2019-03-20T16:00:08.974Z,1034.19
2019-03-20T16:05:06.837Z,1034.14
2019-03-20T16:10:06.550Z,1034.23
2019-03-20T16:15:08.719Z,1034.06
2019-03-20T16:20:06.670Z,1033.97
2019-03-20T16:25:07.717Z,1033.99
2019-03-20T16:30:09.014Z,1033.94
2019-03-20T16:34:07.121Z,1034.02
2019-03-20T16:39:07.892Z,1033.99
2019-03-20T16:44:07.840Z,1034.05
2019-03-20T16:49:06.451Z,1034.12
2019-03-20T16:54:07.244Z,1034.19
2019-03-20T17:04:06.843Z,1034.24
2019-03-20T17:09:07.602Z,1034.25
2019-03-20T17:14:07.584Z,1034.26
2019-03-20T17:19:06.899Z,1034.31
2019-03-20T17:24:06.850Z,1034.24
2019-03-20T17:28:07.117Z,1034.33
2019-03-20T17:33:07.795Z,1034.39
2019-03-20T17:38:07.746Z,1034.49
2019-03-20T17:43:06.914Z,1034.41
2019-03-20T17:48:06.751Z,1034.41
2019-03-20T17:53:07.676Z,1034.43
2019-03-20T17:58:07.396Z,1034.46
2019-03-20T18:02:06.906Z,1034.42
2019-03-20T18:07:07.583Z,1034.53
2019-03-20T18:12:07.395Z,1034.63
2019-03-20T18:17:07.029Z,1034.58
2019-03-20T18:22:07.366Z,1034.61
2019-03-20T18:27:07.355Z,1034.68
2019-03-20T18:32:07.826Z,1034.74
2019-03-20T18:37:07.459Z,1034.68
2019-03-20T18:41:07.058Z,1034.75
2019-03-20T18:46:07.129Z,1034.9
2019-03-20T18:51:08.256Z,1034.92
2019-03-20T18:56:07.535Z,1035.02
2019-03-20T19:01:07.399Z,1035.03
2019-03-20T19:06:07.538Z,1035
2019-03-20T19:11:07.969Z,1034.95
2019-03-20T19:15:09.381Z,1035
2019-03-20T19:20:07.319Z,1034.97
2019-03-20T19:25:07.418Z,1034.94
2019-03-20T19:30:08.238Z,1034.94
2019-03-20T19:35:08.728Z,1034.99
2019-03-20T19:40:06.876Z,1035.04
2019-03-20T19:44:07.300Z,1035.02
2019-03-20T19:49:07.805Z,1035.04
2019-03-20T19:54:07.471Z,1034.95
2019-03-20T19:59:07.136Z,1034.99
2019-03-20T20:04:07.358Z,1034.91
2019-03-20T20:09:07.557Z,1034.92
2019-03-20T20:14:07.352Z,1034.85
2019-03-20T20:18:07.825Z,1034.89
2019-03-20T20:23:07.256Z,1034.94
2019-03-20T20:28:07.342Z,1034.97
2019-03-20T20:33:07.819Z,1035.01
2019-03-20T20:38:07.434Z,1034.91
2019-03-20T20:43:07.517Z,1034.83
2019-03-20T20:48:07.607Z,1034.86
2019-03-20T20:52:07.003Z,1034.9
2019-03-20T20:57:07.040Z,1034.9
2019-03-20T21:02:07.014Z,1034.93
2019-03-20T21:07:07.599Z,1035.03
2019-03-20T21:12:07.629Z,1035.06
2019-03-20T21:17:07.268Z,1035.1
2019-03-20T21:22:06.952Z,1035.09
2019-03-20T21:26:07.209Z,1035.12
2019-03-20T21:31:06.627Z,1035.18
2019-03-20T21:36:07.290Z,1035.21
2019-03-20T21:41:07.206Z,1035.28
2019-03-20T21:46:07.771Z,1035.41
2019-03-20T21:51:07.475Z,1035.47
2019-03-20T21:56:07.091Z,1035.43
2019-03-20T22:01:07.673Z,1035.46
2019-03-20T22:05:07.268Z,1035.49
2019-03-20T22:10:07.254Z,1035.61
2019-03-20T22:15:08.435Z,1035.6
2019-03-20T22:20:07.384Z,1035.71
2019-03-20T22:25:07.115Z,1035.75
2019-03-20T22:30:08.988Z,1035.87
2019-03-20T22:35:07.222Z,1035.86
2019-03-20T22:40:07.365Z,1035.96
2019-03-20T22:44:06.595Z,1036.05
2019-03-20T22:49:06.759Z,1036.12
2019-03-20T22:54:07.433Z,1036
2019-03-20T22:59:07.103Z,1036.1
2019-03-20T23:04:07.418Z,1036.11
2019-03-20T23:09:07.464Z,1035.99
2019-03-20T23:14:06.689Z,1036.01
2019-03-20T23:18:07.045Z,1036.06
2019-03-20T23:23:07.738Z,1036.06
2019-03-20T23:28:07.405Z,1036.04
2019-03-20T23:33:06.842Z,1036.15
2019-03-20T23:38:07.509Z,1036.13
2019-03-20T23:43:07.589Z,1036.05
2019-03-20T23:48:07.694Z,1036.01
2019-03-20T23:52:07.162Z,1035.91
2019-03-20T23:57:07.829Z,1035.88
